createdAt,value
2022-11-24T00:01:30.647Z,1.60
2022-11-24T00:04:04.358Z,1.60
2022-11-24T00:06:34.214Z,1.60
2022-11-24T00:09:01.978Z,1.60
2022-11-24T00:11:32.148Z,1.60
2022-11-24T00:13:59.915Z,1.52
2022-11-24T00:16:30.962Z,1.50
2022-11-24T00:19:00.376Z,1.50
2022-11-24T00:21:29.971Z,1.56
2022-11-24T00:23:57.546Z,1.60
2022-11-24T00:26:30.469Z,1.60
2022-11-24T00:29:00.334Z,1.60
2022-11-24T00:31:36.769Z,1.60
2022-11-24T00:34:08.155Z,1.60
2022-11-24T00:36:36.570Z,1.60
2022-11-24T00:39:07.762Z,1.50
2022-11-24T00:41:34.999Z,1.60
2022-11-24T00:44:02.289Z,1.60
2022-11-24T00:46:29.315Z,1.60
2022-11-24T00:48:56.436Z,1.70
2022-11-24T00:51:27.979Z,1.70
2022-11-24T00:53:56.419Z,1.70
2022-11-24T00:56:23.967Z,1.70
2022-11-24T00:58:50.711Z,1.68
2022-11-24T01:01:21.494Z,1.60
2022-11-24T01:03:48.573Z,1.60
2022-11-24T01:06:22.659Z,1.50
2022-11-24T01:08:49.884Z,1.50
2022-11-24T01:11:51.264Z,1.54
2022-11-24T01:14:18.771Z,1.60
2022-11-24T01:16:45.361Z,1.60
2022-11-24T01:19:11.804Z,1.60
2022-11-24T01:21:38.334Z,1.60
2022-11-24T01:24:05.458Z,1.60
2022-11-24T01:26:32.008Z,1.58
2022-11-24T01:28:59.084Z,1.50
2022-11-24T01:31:27.080Z,1.50
2022-11-24T01:33:54.482Z,1.50
2022-11-24T01:36:21.451Z,1.50
2022-11-24T01:38:48.358Z,1.50
2022-11-24T01:41:22.474Z,1.50
2022-11-24T01:43:50.956Z,1.50
2022-11-24T01:46:44.111Z,1.52
2022-11-24T01:49:23.808Z,1.54
2022-11-24T01:52:10.724Z,1.60
2022-11-24T01:54:44.844Z,1.60
2022-11-24T01:57:40.199Z,1.60
2022-11-24T02:00:11.682Z,1.58
2022-11-24T02:02:39.500Z,1.50
2022-11-24T02:05:34.020Z,1.50
2022-11-24T02:08:02.328Z,1.50
2022-11-24T02:13:25.088Z,1.50
2022-11-24T02:15:53.406Z,1.50
2022-11-24T02:18:19.949Z,1.50
2022-11-24T02:20:46.416Z,1.50
2022-11-24T02:23:42.206Z,1.50
2022-11-24T02:26:34.529Z,1.50
2022-11-24T02:29:01.717Z,1.44
2022-11-24T02:31:28.971Z,1.40
2022-11-24T02:33:56.077Z,1.40
2022-11-24T02:36:22.653Z,1.40
2022-11-24T02:38:49.156Z,1.40
2022-11-24T02:41:21.495Z,1.42
2022-11-24T02:43:57.351Z,1.50
2022-11-24T02:46:24.268Z,1.48
2022-11-24T02:48:51.473Z,1.40
2022-11-24T02:51:18.413Z,1.38
2022-11-24T02:53:45.028Z,1.40
2022-11-24T02:56:11.548Z,1.36
2022-11-24T02:58:38.259Z,1.30
2022-11-24T03:01:05.321Z,1.30
2022-11-24T03:03:32.023Z,1.30
2022-11-24T03:05:58.581Z,1.30
2022-11-24T03:08:25.055Z,1.38
2022-11-24T03:10:51.635Z,1.30
2022-11-24T03:13:18.083Z,1.30
2022-11-24T03:15:44.648Z,1.30
2022-11-24T03:18:11.126Z,1.30
2022-11-24T03:20:37.653Z,1.30
2022-11-24T03:23:04.210Z,1.24
2022-11-24T03:25:30.703Z,1.20
2022-11-24T03:27:58.181Z,1.10
2022-11-24T03:30:24.762Z,1.10
2022-11-24T03:32:53.689Z,1.10
2022-11-24T03:35:22.238Z,1.20
2022-11-24T03:37:49.391Z,1.20
2022-11-24T03:40:18.015Z,1.20
2022-11-24T03:42:44.446Z,1.10
2022-11-24T03:45:38.079Z,1.10
2022-11-24T03:47:58.475Z,1.10
2022-11-24T03:50:25.387Z,1.10
2022-11-24T03:52:51.803Z,1.10
2022-11-24T03:55:18.275Z,1.00
2022-11-24T03:57:44.856Z,1.00
2022-11-24T04:00:12.075Z,1.00
2022-11-24T04:02:38.728Z,1.10
2022-11-24T04:05:06.791Z,1.00
2022-11-24T04:07:33.423Z,1.00
2022-11-24T04:09:59.904Z,0.90
2022-11-24T04:12:44.418Z,0.90
2022-11-24T04:15:15.123Z,0.90
2022-11-24T04:17:42.564Z,0.82
2022-11-24T04:20:11.159Z,0.90
2022-11-24T04:22:38.292Z,0.90
2022-11-24T04:25:06.545Z,0.90
2022-11-24T04:27:34.507Z,0.90
2022-11-24T04:30:00.979Z,0.90
2022-11-24T04:32:27.922Z,0.92
2022-11-24T04:34:54.373Z,1.00
2022-11-24T04:37:20.879Z,1.00
2022-11-24T04:39:47.397Z,1.00
2022-11-24T04:42:14.323Z,1.00
2022-11-24T04:44:40.824Z,0.92
2022-11-24T04:47:07.614Z,0.90
2022-11-24T04:49:34.054Z,0.90
2022-11-24T04:52:00.541Z,0.82
2022-11-24T04:54:27.308Z,0.80
2022-11-24T04:56:53.749Z,0.80
2022-11-24T04:59:20.323Z,0.68
2022-11-24T05:01:47.457Z,0.70
2022-11-24T05:04:15.671Z,0.64
2022-11-24T05:06:42.365Z,0.60
2022-11-24T05:09:13.700Z,0.50
2022-11-24T05:11:41.483Z,0.48
2022-11-24T05:14:07.883Z,0.50
2022-11-24T05:16:34.877Z,0.48
2022-11-24T05:19:01.291Z,0.48
2022-11-24T05:21:28.695Z,0.50
2022-11-24T05:23:55.244Z,0.60
2022-11-24T05:26:21.668Z,0.60
2022-11-24T05:28:48.048Z,0.70
2022-11-24T05:31:14.516Z,0.70
2022-11-24T05:33:40.995Z,0.70
2022-11-24T05:36:07.865Z,0.70
2022-11-24T05:38:35.552Z,0.70
2022-11-24T05:41:04.681Z,0.70
2022-11-24T05:43:31.730Z,0.70
2022-11-24T05:46:02.030Z,0.68
2022-11-24T05:48:28.497Z,0.62
2022-11-24T05:50:56.908Z,0.68
2022-11-24T05:53:23.805Z,0.70
2022-11-24T05:55:50.304Z,0.66
2022-11-24T05:58:16.741Z,0.64
2022-11-24T06:00:43.110Z,0.66
2022-11-24T06:03:12.340Z,0.60
2022-11-24T06:05:39.074Z,0.60
2022-11-24T06:08:05.558Z,0.60
2022-11-24T06:10:31.955Z,0.54
2022-11-24T06:12:58.389Z,0.50
2022-11-24T06:15:24.756Z,0.50
2022-11-24T06:17:55.773Z,0.50
2022-11-24T06:20:29.772Z,0.50
2022-11-24T06:23:00.027Z,0.50
2022-11-24T06:25:27.741Z,0.50
2022-11-24T06:27:54.202Z,0.50
2022-11-24T06:30:20.613Z,0.50
2022-11-24T06:32:49.604Z,0.50
2022-11-24T06:35:17.133Z,0.50
2022-11-24T06:37:43.569Z,0.40
2022-11-24T06:40:10.419Z,0.40
2022-11-24T06:42:37.493Z,0.40
2022-11-24T06:45:08.812Z,0.46
2022-11-24T06:47:36.102Z,0.50
2022-11-24T06:50:02.782Z,0.50
2022-11-24T06:52:29.240Z,0.60
2022-11-24T06:54:55.704Z,0.60
2022-11-24T06:57:22.116Z,0.60
2022-11-24T06:59:48.962Z,0.60
2022-11-24T07:02:15.386Z,0.60
2022-11-24T07:04:41.781Z,0.60
2022-11-24T07:07:08.419Z,0.60
2022-11-24T07:09:34.884Z,0.60
2022-11-24T07:12:02.277Z,0.60
2022-11-24T07:14:28.782Z,0.60
2022-11-24T07:16:55.241Z,0.64
2022-11-24T07:19:24.897Z,0.70
2022-11-24T07:21:51.720Z,0.80
2022-11-24T07:24:18.145Z,0.80
2022-11-24T07:26:44.692Z,0.90
2022-11-24T07:29:11.103Z,0.90
2022-11-24T07:31:37.874Z,0.96
2022-11-24T07:34:04.324Z,1.00
2022-11-24T07:36:30.841Z,1.00
2022-11-24T07:38:57.480Z,1.04
2022-11-24T07:41:23.904Z,1.08
2022-11-24T07:43:51.546Z,1.10
2022-11-24T07:46:19.863Z,1.10
2022-11-24T07:48:47.194Z,1.12
2022-11-24T07:51:14.132Z,1.12
2022-11-24T07:53:40.612Z,1.10
2022-11-24T07:56:08.860Z,1.10
2022-11-24T07:58:37.471Z,1.10
2022-11-24T08:01:16.610Z,1.10
2022-11-24T08:03:44.785Z,1.08
2022-11-24T08:06:25.142Z,1.10
2022-11-24T08:08:55.071Z,1.02
2022-11-24T08:11:21.752Z,1.00
2022-11-24T08:13:48.261Z,1.00
2022-11-24T08:16:17.614Z,1.00
2022-11-24T08:18:50.323Z,1.10
2022-11-24T08:21:16.840Z,1.10
2022-11-24T08:23:43.292Z,1.06
2022-11-24T08:26:17.556Z,1.00
2022-11-24T08:28:46.239Z,1.00
2022-11-24T08:31:16.731Z,0.98
2022-11-24T08:33:43.290Z,0.92
2022-11-24T08:36:13.790Z,0.90
2022-11-24T08:38:40.960Z,0.90
2022-11-24T08:41:12.324Z,0.90
2022-11-24T08:43:39.112Z,0.90
2022-11-24T08:46:09.823Z,0.90
2022-11-24T08:48:36.964Z,1.00
2022-11-24T08:51:14.488Z,1.00
2022-11-24T08:53:42.099Z,1.02
2022-11-24T08:56:10.828Z,1.00
2022-11-24T08:58:38.665Z,1.00
2022-11-24T09:01:12.887Z,1.00
2022-11-24T09:03:44.785Z,1.00
2022-11-24T09:06:16.698Z,1.00
2022-11-24T09:08:43.270Z,1.00
2022-11-24T09:11:14.374Z,1.00
2022-11-24T09:13:41.307Z,1.00
2022-11-24T09:16:18.487Z,1.00
2022-11-24T09:18:45.670Z,1.00
2022-11-24T09:21:20.581Z,1.00
2022-11-24T09:23:50.105Z,1.06
2022-11-24T09:26:30.178Z,1.04
2022-11-24T09:28:59.293Z,1.10
2022-11-24T09:31:36.180Z,1.10
2022-11-24T09:34:07.163Z,1.20
2022-11-24T09:36:34.100Z,1.20
2022-11-24T09:39:01.008Z,1.20
2022-11-24T09:41:48.807Z,1.20
2022-11-24T09:44:58.239Z,1.20
2022-11-24T09:47:48.988Z,1.20
2022-11-24T09:50:22.507Z,1.20
2022-11-24T09:53:28.712Z,1.20
2022-11-24T09:56:00.581Z,1.30
2022-11-24T09:58:48.332Z,1.24
2022-11-24T10:01:35.083Z,1.30
2022-11-24T10:04:06.284Z,1.30
2022-11-24T10:06:48.091Z,1.40
2022-11-24T10:09:59.628Z,1.40
2022-11-24T10:12:50.455Z,1.50
2022-11-24T10:15:42.209Z,1.56
2022-11-24T10:18:42.059Z,1.58
2022-11-24T10:21:55.566Z,1.50
2022-11-24T10:25:13.683Z,1.50
2022-11-24T10:27:45.302Z,1.42
2022-11-24T10:30:23.942Z,1.40
2022-11-24T10:33:00.477Z,1.40
2022-11-24T10:35:56.324Z,1.46
2022-11-24T10:38:42.336Z,1.42
2022-11-24T10:41:22.475Z,1.50
2022-11-24T10:43:49.110Z,1.50
2022-11-24T10:46:23.980Z,1.30
2022-11-24T10:48:58.528Z,1.30
2022-11-24T10:51:31.129Z,1.30
2022-11-24T10:54:07.324Z,1.28
2022-11-24T10:56:44.923Z,1.10
2022-11-24T10:59:37.937Z,1.14
2022-11-24T11:02:29.939Z,1.20
2022-11-24T11:04:56.446Z,1.20
2022-11-24T11:07:26.245Z,1.10
2022-11-24T11:10:23.999Z,1.10
2022-11-24T11:12:50.615Z,1.00
2022-11-24T11:15:31.012Z,1.00
2022-11-24T11:18:00.956Z,1.10
2022-11-24T11:20:32.452Z,1.10
2022-11-24T11:23:04.790Z,1.20
2022-11-24T11:25:35.315Z,1.30
2022-11-24T11:28:18.363Z,1.30
2022-11-24T11:31:19.835Z,1.40
2022-11-24T11:34:23.478Z,1.50
2022-11-24T11:36:56.251Z,1.60
2022-11-24T11:39:45.402Z,1.68
2022-11-24T11:43:00.800Z,1.70
2022-11-24T11:46:00.225Z,1.70
2022-11-24T11:48:42.322Z,1.70
2022-11-24T11:51:38.740Z,1.70
2022-11-24T11:54:34.845Z,1.70
2022-11-24T11:57:42.789Z,1.70
2022-11-24T12:00:22.313Z,1.60
2022-11-24T12:03:00.770Z,1.60
2022-11-24T12:05:53.988Z,1.68
2022-11-24T12:09:26.775Z,1.70
2022-11-24T12:12:20.533Z,1.70
2022-11-24T12:15:22.577Z,1.70
2022-11-24T12:18:55.862Z,1.70
2022-11-24T12:21:41.370Z,1.70
2022-11-24T12:24:39.961Z,1.70
2022-11-24T12:27:41.616Z,1.70
2022-11-24T12:30:21.608Z,1.70
2022-11-24T12:33:28.798Z,1.60
2022-11-24T12:36:30.611Z,1.60
2022-11-24T12:39:24.086Z,1.60
2022-11-24T12:42:17.004Z,1.60
2022-11-24T12:45:06.029Z,1.60
2022-11-24T12:47:49.723Z,1.70
2022-11-24T12:50:21.155Z,1.50
2022-11-24T12:53:04.164Z,1.50
2022-11-24T12:55:33.884Z,1.54
2022-11-24T12:58:39.189Z,1.60
2022-11-24T13:01:17.164Z,1.62
2022-11-24T13:04:03.081Z,1.70
2022-11-24T13:06:58.832Z,1.70
2022-11-24T13:09:25.240Z,1.70
2022-11-24T13:11:53.426Z,1.70
2022-11-24T13:14:34.058Z,1.70
2022-11-24T13:17:31.155Z,1.60
2022-11-24T13:20:18.436Z,1.60
2022-11-24T13:23:04.916Z,1.50
2022-11-24T13:25:35.764Z,1.40
2022-11-24T13:28:06.459Z,1.50
2022-11-24T13:30:35.574Z,1.56
2022-11-24T13:33:33.395Z,1.60
2022-11-24T13:36:03.109Z,1.60
2022-11-24T13:38:44.900Z,1.60
2022-11-24T13:41:31.210Z,1.60
2022-11-24T13:44:15.761Z,1.50
2022-11-24T13:47:05.753Z,1.50
2022-11-24T13:49:46.507Z,1.50
2022-11-24T13:53:14.591Z,1.40
2022-11-24T13:55:52.591Z,1.30
2022-11-24T13:58:29.596Z,1.30
2022-11-24T14:01:23.645Z,1.30
2022-11-24T14:04:31.621Z,1.30
2022-11-24T14:07:12.047Z,1.40
2022-11-24T14:09:53.451Z,1.40
2022-11-24T14:12:26.625Z,1.40
2022-11-24T14:14:57.142Z,1.40
2022-11-24T14:17:28.160Z,1.40
2022-11-24T14:19:57.229Z,1.40
2022-11-24T14:22:36.550Z,1.40
2022-11-24T14:25:03.899Z,1.30
2022-11-24T14:27:40.227Z,1.20
2022-11-24T14:30:09.469Z,1.20
2022-11-24T14:32:37.704Z,1.20
2022-11-24T14:35:32.907Z,1.10
2022-11-24T14:38:05.838Z,1.10
2022-11-24T14:40:54.958Z,1.10
2022-11-24T14:43:29.946Z,1.10
2022-11-24T14:46:04.420Z,1.14
2022-11-24T14:48:37.384Z,1.20
2022-11-24T14:51:26.730Z,1.10
2022-11-24T14:53:58.594Z,1.10
2022-11-24T14:56:35.734Z,1.10
2022-11-24T14:59:04.151Z,1.00
2022-11-24T15:01:34.487Z,0.90
2022-11-24T15:07:27.281Z,0.90
2022-11-24T15:10:00.723Z,0.90
2022-11-24T15:12:35.296Z,0.90
2022-11-24T15:15:18.186Z,1.00
2022-11-24T15:17:52.786Z,1.00
2022-11-24T15:20:43.130Z,0.96
2022-11-24T15:23:20.351Z,0.80
2022-11-24T15:25:47.655Z,0.80
2022-11-24T15:28:14.148Z,0.70
2022-11-24T15:30:42.439Z,0.66
2022-11-24T15:33:16.538Z,0.70
2022-11-24T15:35:43.922Z,0.66
2022-11-24T15:38:10.797Z,0.60
2022-11-24T15:40:39.239Z,0.70
2022-11-24T15:43:21.431Z,0.80
2022-11-24T15:45:48.032Z,0.80
2022-11-24T15:48:17.974Z,0.90
2022-11-24T15:50:46.794Z,0.90
2022-11-24T15:53:36.290Z,0.90
2022-11-24T15:56:07.755Z,0.90
2022-11-24T15:58:34.597Z,0.90
2022-11-24T16:01:01.163Z,0.80
2022-11-24T16:06:23.748Z,0.80
2022-11-24T16:08:51.796Z,0.80
2022-11-24T16:11:18.207Z,0.80
2022-11-24T16:13:51.569Z,0.80
2022-11-24T16:16:19.977Z,0.70
2022-11-24T16:18:46.755Z,0.70
2022-11-24T16:21:13.140Z,0.80
2022-11-24T16:23:39.506Z,0.80
2022-11-24T16:26:06.845Z,0.80
2022-11-24T16:28:34.343Z,0.72
2022-11-24T16:31:00.911Z,0.70
2022-11-24T16:33:30.056Z,0.68
2022-11-24T16:35:56.607Z,0.60
2022-11-24T16:38:23.070Z,0.70
2022-11-24T16:40:56.880Z,0.80
2022-11-24T16:43:24.520Z,0.80
2022-11-24T16:46:19.442Z,0.90
2022-11-24T16:48:48.986Z,0.90
2022-11-24T16:51:16.942Z,0.80
2022-11-24T16:53:43.829Z,0.80
2022-11-24T16:56:11.544Z,0.90
2022-11-24T16:58:40.775Z,0.80
2022-11-24T17:01:11.261Z,0.80
2022-11-24T17:03:38.638Z,0.90
2022-11-24T17:06:08.934Z,0.90
2022-11-24T17:08:37.899Z,0.92
2022-11-24T17:11:09.233Z,1.00
2022-11-24T17:13:35.656Z,1.00
2022-11-24T17:16:09.257Z,1.00
2022-11-24T17:18:36.836Z,1.00
2022-11-24T17:21:09.176Z,1.00
2022-11-24T17:23:36.818Z,1.02
2022-11-24T17:26:07.227Z,1.06
2022-11-24T17:28:35.141Z,1.10
2022-11-24T17:31:22.318Z,1.10
2022-11-24T17:33:50.715Z,1.10
2022-11-24T17:36:17.224Z,1.00
2022-11-24T17:38:43.626Z,1.00
2022-11-24T17:41:10.293Z,1.06
2022-11-24T17:43:37.260Z,1.00
2022-11-24T17:46:05.173Z,0.90
2022-11-24T17:48:32.917Z,0.90
2022-11-24T17:51:22.407Z,0.90
2022-11-24T17:53:52.042Z,0.84
2022-11-24T17:56:25.187Z,0.80
2022-11-24T17:58:57.740Z,0.80
2022-11-24T18:01:28.420Z,0.80
2022-11-24T18:03:54.864Z,0.80
2022-11-24T18:06:25.042Z,0.98
2022-11-24T18:08:53.952Z,1.00
2022-11-24T18:11:31.103Z,1.10
2022-11-24T18:14:02.802Z,1.10
2022-11-24T18:16:32.311Z,1.10
2022-11-24T18:19:08.910Z,1.10
2022-11-24T18:21:41.225Z,1.10
2022-11-24T18:24:12.140Z,1.08
2022-11-24T18:26:40.829Z,1.00
2022-11-24T18:29:08.204Z,1.00
2022-11-24T18:31:35.810Z,0.94
2022-11-24T18:34:05.327Z,1.00
2022-11-24T18:36:33.514Z,1.10
2022-11-24T18:39:05.883Z,1.20
2022-11-24T18:41:32.573Z,1.20
2022-11-24T18:44:03.268Z,1.22
2022-11-24T18:46:29.785Z,1.18
2022-11-24T18:48:56.336Z,1.10
2022-11-24T18:51:23.475Z,1.10
2022-11-24T18:53:54.479Z,1.00
2022-11-24T18:56:21.219Z,1.00
2022-11-24T18:58:47.666Z,1.10
2022-11-24T19:01:18.215Z,1.14
2022-11-24T19:03:49.223Z,1.10
2022-11-24T19:06:28.891Z,1.18
2022-11-24T19:08:55.955Z,1.14
2022-11-24T19:11:29.576Z,1.20
2022-11-24T19:13:56.687Z,1.20
2022-11-24T19:16:24.454Z,1.20
2022-11-24T19:18:54.348Z,1.20
2022-11-24T19:21:21.678Z,1.10
2022-11-24T19:23:48.248Z,1.10
2022-11-24T19:26:15.305Z,1.10
2022-11-24T19:28:41.865Z,1.20
2022-11-24T19:31:12.437Z,1.20
2022-11-24T19:33:39.609Z,1.20
2022-11-24T19:36:11.589Z,1.22
2022-11-24T19:38:39.418Z,1.30
2022-11-24T19:41:08.494Z,1.20
2022-11-24T19:43:35.716Z,1.10
2022-11-24T19:46:05.640Z,1.10
2022-11-24T19:48:34.420Z,1.10
2022-11-24T19:51:03.267Z,1.10
2022-11-24T19:53:30.887Z,1.20
2022-11-24T19:56:09.614Z,1.20
2022-11-24T19:58:36.758Z,1.20
2022-11-24T20:01:08.523Z,1.20
2022-11-24T20:03:36.434Z,1.26
2022-11-24T20:06:04.943Z,1.30
2022-11-24T20:08:33.940Z,1.30
2022-11-24T20:11:11.665Z,1.30
2022-11-24T20:13:40.423Z,1.32
2022-11-24T20:16:14.992Z,1.40
2022-11-24T20:18:46.899Z,1.40
2022-11-24T20:21:18.319Z,1.40
2022-11-24T20:23:52.480Z,1.40
2022-11-24T20:26:22.955Z,1.36
2022-11-24T20:28:51.831Z,1.30
2022-11-24T20:31:22.494Z,1.30
2022-11-24T20:33:49.308Z,1.28
2022-11-24T20:36:20.113Z,1.30
2022-11-24T20:38:48.117Z,1.30
2022-11-24T20:41:20.139Z,1.38
2022-11-24T20:43:48.059Z,1.40
2022-11-24T20:46:27.894Z,1.40
2022-11-24T20:48:56.962Z,1.50
2022-11-24T20:51:30.549Z,1.46
2022-11-24T20:54:00.870Z,1.42
2022-11-24T20:56:31.678Z,1.50
2022-11-24T20:58:59.329Z,1.50
2022-11-24T21:01:30.161Z,1.50
2022-11-24T21:03:59.558Z,1.50
2022-11-24T21:06:28.208Z,1.60
2022-11-24T21:09:00.450Z,1.60
2022-11-24T21:11:30.496Z,1.60
2022-11-24T21:13:57.393Z,1.60
2022-11-24T21:16:33.752Z,1.60
2022-11-24T21:19:06.324Z,1.60
2022-11-24T21:21:36.064Z,1.60
2022-11-24T21:24:13.347Z,1.60
2022-11-24T21:26:41.756Z,1.60
2022-11-24T21:29:11.808Z,1.60
2022-11-24T21:31:38.661Z,1.70
2022-11-24T21:34:07.509Z,1.70
2022-11-24T21:36:35.434Z,1.70
2022-11-24T21:39:03.743Z,1.62
2022-11-24T21:41:33.871Z,1.62
2022-11-24T21:44:00.915Z,1.60
2022-11-24T21:46:39.015Z,1.60
2022-11-24T21:49:07.025Z,1.50
2022-11-24T21:51:33.400Z,1.40
2022-11-24T21:53:59.791Z,1.40
2022-11-24T21:56:26.258Z,1.46
2022-11-24T21:58:57.282Z,1.50
2022-11-24T22:01:28.005Z,1.50
2022-11-24T22:03:54.577Z,1.56
2022-11-24T22:06:21.432Z,1.60
2022-11-24T22:08:49.118Z,1.50
2022-11-24T22:11:20.067Z,1.46
2022-11-24T22:13:47.688Z,1.40
2022-11-24T22:16:21.524Z,1.42
2022-11-24T22:18:48.908Z,1.50
2022-11-24T22:21:18.623Z,1.50
2022-11-24T22:23:45.385Z,1.50
2022-11-24T22:26:16.757Z,1.50
2022-11-24T22:28:44.963Z,1.50
2022-11-24T22:31:19.242Z,1.58
2022-11-24T22:33:46.414Z,1.60
2022-11-24T22:36:14.926Z,1.70
2022-11-24T22:38:42.543Z,1.70
2022-11-24T22:41:16.089Z,1.70
2022-11-24T22:43:44.287Z,1.72
2022-11-24T22:46:16.698Z,1.70
2022-11-24T22:48:45.111Z,1.80
2022-11-24T22:51:15.680Z,1.80
2022-11-24T22:53:48.539Z,1.80
2022-11-24T22:56:16.087Z,1.80
2022-11-24T22:58:43.154Z,1.80
2022-11-24T23:01:25.344Z,1.80
2022-11-24T23:03:54.505Z,1.80
2022-11-24T23:06:30.907Z,1.80
2022-11-24T23:09:00.027Z,1.80
2022-11-24T23:11:36.415Z,1.80
2022-11-24T23:14:05.935Z,1.80
2022-11-24T23:16:32.522Z,1.72
2022-11-24T23:18:59.044Z,1.76
2022-11-24T23:21:30.522Z,1.70
2022-11-24T23:24:00.232Z,1.78
2022-11-24T23:26:31.862Z,1.80
2022-11-24T23:28:58.634Z,1.80
2022-11-24T23:31:28.898Z,1.78
2022-11-24T23:34:00.907Z,1.70
2022-11-24T23:36:29.092Z,1.70
2022-11-24T23:38:55.943Z,1.70
2022-11-24T23:41:25.686Z,1.70
2022-11-24T23:43:52.667Z,1.70
2022-11-24T23:46:23.093Z,1.70
2022-11-24T23:48:51.778Z,1.70
2022-11-24T23:51:20.673Z,1.70
2022-11-24T23:53:47.437Z,1.70
2022-11-24T23:56:21.046Z,1.70
2022-11-24T23:58:47.927Z,1.80
